This is the latest recevied weather packets stored in our database for station/object IR3AS. If no packets are shown the sender has not sent any weather packets the latest 10 day(s).
| Time | Temp. | Humidity | Pressure | Rain* | Wind** | Luminosity | Snow |
|---|---|---|---|---|---|---|---|
| 1787720764 | 12.78° C | 77% | 867.9 hPa | 0 mm | - | - | - |
| 1787720704 | 12.78° C | 77% | 867.9 hPa | 0 mm | - | - | - |
| 1787720404 | 12.22° C | 77% | 867.5 hPa | 0 mm | - | - | - |
| 1787720105 | 12.22° C | 78% | 867.3 hPa | 0 mm | - | - | - |
| 1787719804 | 11.67° C | 78% | 866.8 hPa | 0 mm | - | - | - |
| 1787719504 | 11.67° C | 77% | 866.4 hPa | 0 mm | - | - | - |
| 1787719204 | 11.67° C | 77% | 866.2 hPa | 0 mm | - | - | - |
| 1787718904 | 11.67° C | 76% | 866.1 hPa | 0 mm | - | - | - |
| 1787718604 | 12.22° C | 76% | 866 hPa | 0 mm | - | - | - |
| 1787718304 | 12.22° C | 75% | 866.1 hPa | 0 mm | - | - | - |
| 1787718005 | 11.67° C | 75% | 865.7 hPa | 0 mm | - | - | - |
| 1787717704 | 11.67° C | 76% | 866.1 hPa | 0 mm | - | - | - |
| 1787717404 | 11.67° C | 76% | 865.9 hPa | 0 mm | - | - | - |
| 1787717106 | 11.11° C | 81% | 865.2 hPa | 0 mm | - | - | - |
| 1787716804 | 11.67° C | 79% | 865.2 hPa | 0 mm | - | - | - |
| 1787716504 | 11.67° C | 78% | 865.4 hPa | 0 mm | - | - | - |
| 1787716205 | 11.67° C | 79% | 865.3 hPa | 0 mm | - | - | - |
| 1787715904 | 11.67° C | 79% | 865.3 hPa | 0 mm | - | - | - |
| 1787715604 | 11.67° C | 79% | 865.3 hPa | 0 mm | - | - | - |
| 1787715345 | 11.67° C | 79% | 865.4 hPa | 0 mm | - | - | - |
| 1787715306 | 11.67° C | 79% | 865.4 hPa | 0 mm | - | - | - |
| 1787715004 | 11.67° C | 78% | 865.3 hPa | 0 mm | - | - | - |
| 1787714704 | 11.11° C | 79% | 865 hPa | 0 mm | - | - | - |
| 1787714439 | 11.11° C | 83% | 865.1 hPa | 0 mm | - | - | - |
| 1787714404 | 11.11° C | 83% | 865.1 hPa | 0 mm | - | - | - |
* Rain latest hour (hover to see other rain measurements)
** Current wind speed in m/s (hover to see current wind gust speed)